sensor_id;sensor_type;location;lat;lon;timestamp;temperature;humidity
58582;DHT22;44361;51.476;5.700;2024-01-27T00:01:37;1.80;99.90
58582;DHT22;44361;51.476;5.700;2024-01-27T00:04:03;1.80;99.90
58582;DHT22;44361;51.476;5.700;2024-01-27T00:06:28;1.70;99.90
58582;DHT22;44361;51.476;5.700;2024-01-27T00:08:54;1.70;99.90
58582;DHT22;44361;51.476;5.700;2024-01-27T00:11:19;1.70;99.90
58582;DHT22;44361;51.476;5.700;2024-01-27T00:13:46;1.70;99.90
58582;DHT22;44361;51.476;5.700;2024-01-27T00:16:11;1.80;99.90
58582;DHT22;44361;51.476;5.700;2024-01-27T00:18:37;1.70;99.90
58582;DHT22;44361;51.476;5.700;2024-01-27T00:21:05;1.70;99.90
58582;DHT22;44361;51.476;5.700;2024-01-27T00:23:31;1.80;99.90
58582;DHT22;44361;51.476;5.700;2024-01-27T00:25:58;1.80;99.90
58582;DHT22;44361;51.476;5.700;2024-01-27T00:28:23;1.80;99.90
58582;DHT22;44361;51.476;5.700;2024-01-27T00:30:49;1.60;99.90
58582;DHT22;44361;51.476;5.700;2024-01-27T00:33:14;1.60;99.90
58582;DHT22;44361;51.476;5.700;2024-01-27T00:35:40;1.60;99.90
58582;DHT22;44361;51.476;5.700;2024-01-27T00:38:05;1.50;99.90
58582;DHT22;44361;51.476;5.700;2024-01-27T00:40:31;1.50;99.90
58582;DHT22;44361;51.476;5.700;2024-01-27T00:42:57;1.40;99.90
58582;DHT22;44361;51.476;5.700;2024-01-27T00:45:22;1.50;99.90
58582;DHT22;44361;51.476;5.700;2024-01-27T00:47:49;1.40;99.90
58582;DHT22;44361;51.476;5.700;2024-01-27T00:50:15;1.40;99.90
58582;DHT22;44361;51.476;5.700;2024-01-27T00:52:41;1.40;99.90
58582;DHT22;44361;51.476;5.700;2024-01-27T00:55:07;1.30;99.90
58582;DHT22;44361;51.476;5.700;2024-01-27T00:57:33;1.30;99.90
58582;DHT22;44361;51.476;5.700;2024-01-27T00:59:58;1.30;99.90
58582;DHT22;44361;51.476;5.700;2024-01-27T01:02:24;1.30;99.90
58582;DHT22;44361;51.476;5.700;2024-01-27T01:04:49;1.20;99.90
58582;DHT22;44361;51.476;5.700;2024-01-27T01:07:15;1.30;99.90
58582;DHT22;44361;51.476;5.700;2024-01-27T01:09:41;1.30;99.90
58582;DHT22;44361;51.476;5.700;2024-01-27T01:12:06;1.30;99.90
58582;DHT22;44361;51.476;5.700;2024-01-27T01:14:32;1.30;99.90
58582;DHT22;44361;51.476;5.700;2024-01-27T01:16:58;1.30;99.90
58582;DHT22;44361;51.476;5.700;2024-01-27T01:19:23;1.30;99.90
58582;DHT22;44361;51.476;5.700;2024-01-27T01:21:49;1.20;99.90
58582;DHT22;44361;51.476;5.700;2024-01-27T01:24:15;1.20;99.90
58582;DHT22;44361;51.476;5.700;2024-01-27T01:26:40;1.10;99.90
58582;DHT22;44361;51.476;5.700;2024-01-27T01:29:06;1.20;99.90
58582;DHT22;44361;51.476;5.700;2024-01-27T01:31:31;1.10;99.90
58582;DHT22;44361;51.476;5.700;2024-01-27T01:33:57;1.10;99.90
58582;DHT22;44361;51.476;5.700;2024-01-27T01:36:23;1.10;99.90
58582;DHT22;44361;51.476;5.700;2024-01-27T01:38:49;1.20;99.90
58582;DHT22;44361;51.476;5.700;2024-01-27T01:41:14;1.20;99.90
58582;DHT22;44361;51.476;5.700;2024-01-27T01:43:40;1.10;99.90
58582;DHT22;44361;51.476;5.700;2024-01-27T01:46:05;1.20;99.90
58582;DHT22;44361;51.476;5.700;2024-01-27T01:48:31;1.20;99.90
58582;DHT22;44361;51.476;5.700;2024-01-27T01:50:58;1.30;99.90
58582;DHT22;44361;51.476;5.700;2024-01-27T01:53:24;1.20;99.90
58582;DHT22;44361;51.476;5.700;2024-01-27T01:55:51;1.20;99.90
58582;DHT22;44361;51.476;5.700;2024-01-27T01:58:18;1.10;99.90
58582;DHT22;44361;51.476;5.700;2024-01-27T02:00:43;1.10;99.90
58582;DHT22;44361;51.476;5.700;2024-01-27T02:03:13;1.10;99.90
58582;DHT22;44361;51.476;5.700;2024-01-27T02:05:39;1.00;99.90
58582;DHT22;44361;51.476;5.700;2024-01-27T02:08:05;1.00;99.90
58582;DHT22;44361;51.476;5.700;2024-01-27T02:10:30;1.00;99.90
58582;DHT22;44361;51.476;5.700;2024-01-27T02:13:03;1.00;99.90
58582;DHT22;44361;51.476;5.700;2024-01-27T02:15:28;0.90;99.90
58582;DHT22;44361;51.476;5.700;2024-01-27T02:17:54;0.90;99.90
58582;DHT22;44361;51.476;5.700;2024-01-27T02:20:19;0.90;99.90
58582;DHT22;44361;51.476;5.700;2024-01-27T02:22:45;0.90;99.90
58582;DHT22;44361;51.476;5.700;2024-01-27T02:25:11;0.90;99.90
58582;DHT22;44361;51.476;5.700;2024-01-27T02:27:36;1.00;99.90
58582;DHT22;44361;51.476;5.700;2024-01-27T02:30:02;1.00;99.90
58582;DHT22;44361;51.476;5.700;2024-01-27T02:32:28;1.00;99.90
58582;DHT22;44361;51.476;5.700;2024-01-27T02:34:53;1.00;99.90
58582;DHT22;44361;51.476;5.700;2024-01-27T02:37:19;0.90;99.90
58582;DHT22;44361;51.476;5.700;2024-01-27T02:39:44;0.90;99.90
58582;DHT22;44361;51.476;5.700;2024-01-27T02:42:10;0.90;99.90
58582;DHT22;44361;51.476;5.700;2024-01-27T02:44:36;0.90;99.90
58582;DHT22;44361;51.476;5.700;2024-01-27T02:47:01;1.00;99.90
58582;DHT22;44361;51.476;5.700;2024-01-27T02:49:27;1.00;99.90
58582;DHT22;44361;51.476;5.700;2024-01-27T02:51:52;1.00;99.90
58582;DHT22;44361;51.476;5.700;2024-01-27T02:54:18;1.00;99.90
58582;DHT22;44361;51.476;5.700;2024-01-27T02:56:43;0.90;99.90
58582;DHT22;44361;51.476;5.700;2024-01-27T02:59:09;0.90;99.90
58582;DHT22;44361;51.476;5.700;2024-01-27T03:01:36;0.90;99.90
58582;DHT22;44361;51.476;5.700;2024-01-27T03:04:02;0.90;99.90
58582;DHT22;44361;51.476;5.700;2024-01-27T03:06:29;0.90;99.90
58582;DHT22;44361;51.476;5.700;2024-01-27T03:08:54;0.90;99.90
58582;DHT22;44361;51.476;5.700;2024-01-27T03:11:20;1.00;99.90
58582;DHT22;44361;51.476;5.700;2024-01-27T03:13:46;0.90;99.90
58582;DHT22;44361;51.476;5.700;2024-01-27T03:16:12;0.90;99.90
58582;DHT22;44361;51.476;5.700;2024-01-27T03:18:38;0.90;99.90
58582;DHT22;44361;51.476;5.700;2024-01-27T03:21:06;0.90;99.90
58582;DHT22;44361;51.476;5.700;2024-01-27T03:23:32;0.80;99.90
58582;DHT22;44361;51.476;5.700;2024-01-27T03:25:58;0.90;99.90
58582;DHT22;44361;51.476;5.700;2024-01-27T03:28:23;0.80;99.90
58582;DHT22;44361;51.476;5.700;2024-01-27T03:30:49;0.80;99.90
58582;DHT22;44361;51.476;5.700;2024-01-27T03:33:14;0.80;99.90
58582;DHT22;44361;51.476;5.700;2024-01-27T03:35:40;0.80;99.90
58582;DHT22;44361;51.476;5.700;2024-01-27T03:38:06;0.70;99.90
58582;DHT22;44361;51.476;5.700;2024-01-27T03:40:31;0.80;99.90
58582;DHT22;44361;51.476;5.700;2024-01-27T03:42:57;0.80;99.90
58582;DHT22;44361;51.476;5.700;2024-01-27T03:45:22;0.70;99.90
58582;DHT22;44361;51.476;5.700;2024-01-27T03:47:48;0.70;99.90
58582;DHT22;44361;51.476;5.700;2024-01-27T03:50:14;0.70;99.90
58582;DHT22;44361;51.476;5.700;2024-01-27T03:52:39;0.70;99.90
58582;DHT22;44361;51.476;5.700;2024-01-27T03:55:06;0.70;99.90
58582;DHT22;44361;51.476;5.700;2024-01-27T03:57:32;0.70;99.90
58582;DHT22;44361;51.476;5.700;2024-01-27T03:59:57;0.70;99.90
58582;DHT22;44361;51.476;5.700;2024-01-27T04:02:23;0.70;99.90
58582;DHT22;44361;51.476;5.700;2024-01-27T04:04:48;0.70;99.90
58582;DHT22;44361;51.476;5.700;2024-01-27T04:07:14;0.70;99.90
58582;DHT22;44361;51.476;5.700;2024-01-27T04:09:39;0.60;99.90
58582;DHT22;44361;51.476;5.700;2024-01-27T04:12:05;0.70;99.90
58582;DHT22;44361;51.476;5.700;2024-01-27T04:14:31;0.60;99.90
58582;DHT22;44361;51.476;5.700;2024-01-27T04:16:56;0.50;99.90
58582;DHT22;44361;51.476;5.700;2024-01-27T04:19:22;0.50;99.90
58582;DHT22;44361;51.476;5.700;2024-01-27T04:21:47;0.50;99.90
58582;DHT22;44361;51.476;5.700;2024-01-27T04:24:13;0.50;99.90
58582;DHT22;44361;51.476;5.700;2024-01-27T04:26:38;0.50;99.90
58582;DHT22;44361;51.476;5.700;2024-01-27T04:29:04;0.60;99.90
58582;DHT22;44361;51.476;5.700;2024-01-27T04:31:30;0.60;99.90
58582;DHT22;44361;51.476;5.700;2024-01-27T04:33:57;0.70;99.90
58582;DHT22;44361;51.476;5.700;2024-01-27T04:36:29;0.70;99.90
58582;DHT22;44361;51.476;5.700;2024-01-27T04:38:55;0.60;99.90
58582;DHT22;44361;51.476;5.700;2024-01-27T04:41:21;0.60;99.90
58582;DHT22;44361;51.476;5.700;2024-01-27T04:43:46;0.60;99.90
58582;DHT22;44361;51.476;5.700;2024-01-27T04:46:12;0.60;99.90
58582;DHT22;44361;51.476;5.700;2024-01-27T04:48:38;0.50;99.90
58582;DHT22;44361;51.476;5.700;2024-01-27T04:51:03;0.50;99.90
58582;DHT22;44361;51.476;5.700;2024-01-27T04:53:29;0.50;99.90
58582;DHT22;44361;51.476;5.700;2024-01-27T04:55:54;0.50;99.90
58582;DHT22;44361;51.476;5.700;2024-01-27T04:58:20;0.50;99.90
58582;DHT22;44361;51.476;5.700;2024-01-27T05:00:46;0.60;99.90
58582;DHT22;44361;51.476;5.700;2024-01-27T05:03:11;0.50;99.90
58582;DHT22;44361;51.476;5.700;2024-01-27T05:05:42;0.50;99.90
58582;DHT22;44361;51.476;5.700;2024-01-27T05:08:09;0.50;99.90
58582;DHT22;44361;51.476;5.700;2024-01-27T05:10:35;0.50;99.90
58582;DHT22;44361;51.476;5.700;2024-01-27T05:13:01;0.50;99.90
58582;DHT22;44361;51.476;5.700;2024-01-27T05:15:27;0.40;99.90
58582;DHT22;44361;51.476;5.700;2024-01-27T05:17:53;0.40;99.90
58582;DHT22;44361;51.476;5.700;2024-01-27T05:20:18;0.40;99.90
58582;DHT22;44361;51.476;5.700;2024-01-27T05:22:44;0.40;99.90
58582;DHT22;44361;51.476;5.700;2024-01-27T05:25:11;0.40;99.90
58582;DHT22;44361;51.476;5.700;2024-01-27T05:27:37;0.40;99.90
58582;DHT22;44361;51.476;5.700;2024-01-27T05:30:05;0.40;99.90
58582;DHT22;44361;51.476;5.700;2024-01-27T05:32:31;0.40;99.90
58582;DHT22;44361;51.476;5.700;2024-01-27T05:34:56;0.40;99.90
58582;DHT22;44361;51.476;5.700;2024-01-27T05:37:22;0.40;99.90
58582;DHT22;44361;51.476;5.700;2024-01-27T05:39:47;0.40;99.90
58582;DHT22;44361;51.476;5.700;2024-01-27T05:42:13;0.30;99.90
58582;DHT22;44361;51.476;5.700;2024-01-27T05:44:38;0.40;99.90
58582;DHT22;44361;51.476;5.700;2024-01-27T05:47:06;0.40;99.90
58582;DHT22;44361;51.476;5.700;2024-01-27T05:49:31;0.30;99.90
58582;DHT22;44361;51.476;5.700;2024-01-27T05:51:57;0.30;99.90
58582;DHT22;44361;51.476;5.700;2024-01-27T05:54:23;0.30;99.90
58582;DHT22;44361;51.476;5.700;2024-01-27T05:56:48;0.20;99.90
58582;DHT22;44361;51.476;5.700;2024-01-27T05:59:14;0.30;99.90
58582;DHT22;44361;51.476;5.700;2024-01-27T06:01:39;0.30;99.90
58582;DHT22;44361;51.476;5.700;2024-01-27T06:04:06;0.30;99.90
58582;DHT22;44361;51.476;5.700;2024-01-27T06:06:32;0.30;99.90
58582;DHT22;44361;51.476;5.700;2024-01-27T06:08:57;0.20;99.90
58582;DHT22;44361;51.476;5.700;2024-01-27T06:11:26;0.20;99.90
58582;DHT22;44361;51.476;5.700;2024-01-27T06:13:52;0.20;99.90
58582;DHT22;44361;51.476;5.700;2024-01-27T06:16:18;0.10;99.90
58582;DHT22;44361;51.476;5.700;2024-01-27T06:18:46;0.10;99.90
58582;DHT22;44361;51.476;5.700;2024-01-27T06:21:12;0.10;99.90
58582;DHT22;44361;51.476;5.700;2024-01-27T06:23:38;0.10;99.90
58582;DHT22;44361;51.476;5.700;2024-01-27T06:26:08;0.00;99.90
58582;DHT22;44361;51.476;5.700;2024-01-27T06:28:34;0.10;99.90
58582;DHT22;44361;51.476;5.700;2024-01-27T06:31:00;0.20;99.90
58582;DHT22;44361;51.476;5.700;2024-01-27T06:33:26;0.20;99.90
58582;DHT22;44361;51.476;5.700;2024-01-27T06:35:52;0.10;99.90
58582;DHT22;44361;51.476;5.700;2024-01-27T06:38:17;0.00;99.90
58582;DHT22;44361;51.476;5.700;2024-01-27T06:40:43;0.00;99.90
58582;DHT22;44361;51.476;5.700;2024-01-27T06:43:12;0.00;99.90
58582;DHT22;44361;51.476;5.700;2024-01-27T06:45:38;0.00;99.90
58582;DHT22;44361;51.476;5.700;2024-01-27T06:48:04;0.00;99.90
58582;DHT22;44361;51.476;5.700;2024-01-27T06:50:30;0.00;99.90
58582;DHT22;44361;51.476;5.700;2024-01-27T06:52:55;0.00;99.90
58582;DHT22;44361;51.476;5.700;2024-01-27T06:55:21;0.10;99.90
58582;DHT22;44361;51.476;5.700;2024-01-27T06:57:46;0.10;99.90
58582;DHT22;44361;51.476;5.700;2024-01-27T07:00:13;0.10;99.90
58582;DHT22;44361;51.476;5.700;2024-01-27T07:02:40;0.20;99.90
58582;DHT22;44361;51.476;5.700;2024-01-27T07:05:09;0.10;99.90
58582;DHT22;44361;51.476;5.700;2024-01-27T07:07:35;0.10;99.90
58582;DHT22;44361;51.476;5.700;2024-01-27T07:10:01;0.00;99.90
58582;DHT22;44361;51.476;5.700;2024-01-27T07:12:27;0.10;99.90
58582;DHT22;44361;51.476;5.700;2024-01-27T07:14:53;0.10;99.90
58582;DHT22;44361;51.476;5.700;2024-01-27T07:17:20;0.10;99.90
58582;DHT22;44361;51.476;5.700;2024-01-27T07:19:46;0.00;99.90
58582;DHT22;44361;51.476;5.700;2024-01-27T07:22:11;0.00;99.90
58582;DHT22;44361;51.476;5.700;2024-01-27T07:24:37;0.00;99.90
58582;DHT22;44361;51.476;5.700;2024-01-27T07:27:03;0.10;99.90
58582;DHT22;44361;51.476;5.700;2024-01-27T07:29:29;0.20;99.90
58582;DHT22;44361;51.476;5.700;2024-01-27T07:31:55;0.30;99.90
58582;DHT22;44361;51.476;5.700;2024-01-27T07:34:20;0.30;99.90
58582;DHT22;44361;51.476;5.700;2024-01-27T07:36:46;0.30;99.90
58582;DHT22;44361;51.476;5.700;2024-01-27T07:39:13;0.30;99.90
58582;DHT22;44361;51.476;5.700;2024-01-27T07:41:39;0.30;99.90
58582;DHT22;44361;51.476;5.700;2024-01-27T07:44:08;0.30;99.90
58582;DHT22;44361;51.476;5.700;2024-01-27T07:46:35;0.40;99.90
58582;DHT22;44361;51.476;5.700;2024-01-27T07:49:01;0.40;99.90
58582;DHT22;44361;51.476;5.700;2024-01-27T07:51:28;0.40;99.90
58582;DHT22;44361;51.476;5.700;2024-01-27T07:53:54;0.40;99.90
58582;DHT22;44361;51.476;5.700;2024-01-27T07:56:19;0.40;99.90
58582;DHT22;44361;51.476;5.700;2024-01-27T07:58:45;0.50;99.90
58582;DHT22;44361;51.476;5.700;2024-01-27T08:01:13;0.50;99.90
58582;DHT22;44361;51.476;5.700;2024-01-27T08:03:39;0.50;99.90
58582;DHT22;44361;51.476;5.700;2024-01-27T08:06:05;0.60;99.90
58582;DHT22;44361;51.476;5.700;2024-01-27T08:08:32;0.60;99.90
58582;DHT22;44361;51.476;5.700;2024-01-27T08:10:58;0.60;99.90
58582;DHT22;44361;51.476;5.700;2024-01-27T08:13:23;0.60;99.90
58582;DHT22;44361;51.476;5.700;2024-01-27T08:15:49;0.60;99.90
58582;DHT22;44361;51.476;5.700;2024-01-27T08:18:15;0.60;99.90
58582;DHT22;44361;51.476;5.700;2024-01-27T08:20:40;0.70;99.90
58582;DHT22;44361;51.476;5.700;2024-01-27T08:23:06;0.70;99.90
58582;DHT22;44361;51.476;5.700;2024-01-27T08:25:31;0.70;99.90
58582;DHT22;44361;51.476;5.700;2024-01-27T08:27:57;0.70;99.90
58582;DHT22;44361;51.476;5.700;2024-01-27T08:30:22;0.80;99.90
58582;DHT22;44361;51.476;5.700;2024-01-27T08:32:48;0.80;99.90
58582;DHT22;44361;51.476;5.700;2024-01-27T08:35:14;0.90;99.90
58582;DHT22;44361;51.476;5.700;2024-01-27T08:37:39;0.90;99.90
58582;DHT22;44361;51.476;5.700;2024-01-27T08:40:06;1.00;99.90
58582;DHT22;44361;51.476;5.700;2024-01-27T08:42:31;1.10;99.90
58582;DHT22;44361;51.476;5.700;2024-01-27T08:44:57;1.10;99.90
58582;DHT22;44361;51.476;5.700;2024-01-27T08:47:22;1.20;99.90
58582;DHT22;44361;51.476;5.700;2024-01-27T08:49:48;1.30;99.90
58582;DHT22;44361;51.476;5.700;2024-01-27T08:52:13;1.30;99.90
58582;DHT22;44361;51.476;5.700;2024-01-27T08:54:39;1.40;99.90
58582;DHT22;44361;51.476;5.700;2024-01-27T08:57:06;1.50;99.90
58582;DHT22;44361;51.476;5.700;2024-01-27T08:59:31;1.50;99.90
58582;DHT22;44361;51.476;5.700;2024-01-27T09:01:57;1.60;99.90
58582;DHT22;44361;51.476;5.700;2024-01-27T09:04:23;1.70;99.90
58582;DHT22;44361;51.476;5.700;2024-01-27T09:06:48;1.70;99.90
58582;DHT22;44361;51.476;5.700;2024-01-27T09:09:14;1.80;99.90
58582;DHT22;44361;51.476;5.700;2024-01-27T09:11:39;1.80;99.90
58582;DHT22;44361;51.476;5.700;2024-01-27T09:14:05;1.90;99.90
58582;DHT22;44361;51.476;5.700;2024-01-27T09:16:32;1.90;99.90
58582;DHT22;44361;51.476;5.700;2024-01-27T09:18:58;2.10;99.90
58582;DHT22;44361;51.476;5.700;2024-01-27T09:21:24;2.10;99.90
58582;DHT22;44361;51.476;5.700;2024-01-27T09:23:54;2.10;99.90
58582;DHT22;44361;51.476;5.700;2024-01-27T09:26:20;2.20;99.90
58582;DHT22;44361;51.476;5.700;2024-01-27T09:28:45;2.40;99.90
58582;DHT22;44361;51.476;5.700;2024-01-27T09:31:25;2.40;99.90
58582;DHT22;44361;51.476;5.700;2024-01-27T09:33:52;2.50;99.90
58582;DHT22;44361;51.476;5.700;2024-01-27T09:36:18;2.50;99.90
58582;DHT22;44361;51.476;5.700;2024-01-27T09:38:44;2.60;99.90
58582;DHT22;44361;51.476;5.700;2024-01-27T09:41:11;2.60;99.90
58582;DHT22;44361;51.476;5.700;2024-01-27T09:43:42;2.70;99.90
58582;DHT22;44361;51.476;5.700;2024-01-27T09:46:10;2.80;99.90
58582;DHT22;44361;51.476;5.700;2024-01-27T09:48:36;2.90;99.90
58582;DHT22;44361;51.476;5.700;2024-01-27T09:51:03;3.00;99.90
58582;DHT22;44361;51.476;5.700;2024-01-27T09:53:29;3.10;99.90
58582;DHT22;44361;51.476;5.700;2024-01-27T09:55:58;3.20;99.90
58582;DHT22;44361;51.476;5.700;2024-01-27T09:58:25;3.20;99.90
58582;DHT22;44361;51.476;5.700;2024-01-27T10:00:55;3.20;99.90
58582;DHT22;44361;51.476;5.700;2024-01-27T10:03:26;3.20;99.90
58582;DHT22;44361;51.476;5.700;2024-01-27T10:05:53;3.30;99.90
58582;DHT22;44361;51.476;5.700;2024-01-27T10:08:23;3.30;99.90
58582;DHT22;44361;51.476;5.700;2024-01-27T10:10:58;3.30;99.90
58582;DHT22;44361;51.476;5.700;2024-01-27T10:13:24;3.40;99.90
58582;DHT22;44361;51.476;5.700;2024-01-27T10:16:03;3.50;99.90
58582;DHT22;44361;51.476;5.700;2024-01-27T10:18:30;3.50;99.90
58582;DHT22;44361;51.476;5.700;2024-01-27T10:20:56;3.60;99.90
58582;DHT22;44361;51.476;5.700;2024-01-27T10:23:21;3.60;99.90
58582;DHT22;44361;51.476;5.700;2024-01-27T10:25:47;3.70;99.90
58582;DHT22;44361;51.476;5.700;2024-01-27T10:28:13;3.80;99.90
58582;DHT22;44361;51.476;5.700;2024-01-27T10:30:38;3.80;99.90
58582;DHT22;44361;51.476;5.700;2024-01-27T10:33:04;3.90;99.90
58582;DHT22;44361;51.476;5.700;2024-01-27T10:35:30;3.90;99.90
58582;DHT22;44361;51.476;5.700;2024-01-27T10:37:56;4.00;99.90
58582;DHT22;44361;51.476;5.700;2024-01-27T10:40:22;4.00;99.90
58582;DHT22;44361;51.476;5.700;2024-01-27T10:43:05;4.10;99.90
58582;DHT22;44361;51.476;5.700;2024-01-27T10:45:35;4.20;99.90
58582;DHT22;44361;51.476;5.700;2024-01-27T10:48:03;4.30;99.90
58582;DHT22;44361;51.476;5.700;2024-01-27T10:50:29;4.30;99.90
58582;DHT22;44361;51.476;5.700;2024-01-27T10:52:57;4.40;99.90
58582;DHT22;44361;51.476;5.700;2024-01-27T10:55:24;4.50;99.90
58582;DHT22;44361;51.476;5.700;2024-01-27T10:57:52;4.70;99.90
58582;DHT22;44361;51.476;5.700;2024-01-27T11:00:19;4.80;99.90
58582;DHT22;44361;51.476;5.700;2024-01-27T11:02:45;4.90;99.90
58582;DHT22;44361;51.476;5.700;2024-01-27T11:05:14;4.90;99.90
58582;DHT22;44361;51.476;5.700;2024-01-27T11:07:41;5.00;99.90
58582;DHT22;44361;51.476;5.700;2024-01-27T11:10:08;5.20;99.90
58582;DHT22;44361;51.476;5.700;2024-01-27T11:12:34;5.30;99.90
58582;DHT22;44361;51.476;5.700;2024-01-27T11:15:00;5.40;99.90
58582;DHT22;44361;51.476;5.700;2024-01-27T11:17:25;5.60;99.90
58582;DHT22;44361;51.476;5.700;2024-01-27T11:19:51;5.70;99.90
58582;DHT22;44361;51.476;5.700;2024-01-27T11:22:24;5.70;99.90
58582;DHT22;44361;51.476;5.700;2024-01-27T11:24:52;5.90;99.90
58582;DHT22;44361;51.476;5.700;2024-01-27T11:27:18;6.00;99.90
58582;DHT22;44361;51.476;5.700;2024-01-27T11:29:47;6.10;99.90
58582;DHT22;44361;51.476;5.700;2024-01-27T11:32:15;6.20;99.90
58582;DHT22;44361;51.476;5.700;2024-01-27T11:34:44;6.30;99.90
58582;DHT22;44361;51.476;5.700;2024-01-27T11:37:11;6.30;99.90
58582;DHT22;44361;51.476;5.700;2024-01-27T11:39:37;6.40;99.90
58582;DHT22;44361;51.476;5.700;2024-01-27T11:44:36;6.40;99.90
58582;DHT22;44361;51.476;5.700;2024-01-27T11:47:02;6.50;99.90
58582;DHT22;44361;51.476;5.700;2024-01-27T11:49:28;6.60;99.90
58582;DHT22;44361;51.476;5.700;2024-01-27T11:51:54;6.60;99.90
58582;DHT22;44361;51.476;5.700;2024-01-27T11:54:19;6.70;99.90
58582;DHT22;44361;51.476;5.700;2024-01-27T11:56:45;6.70;99.90
58582;DHT22;44361;51.476;5.700;2024-01-27T11:59:11;6.70;99.90
58582;DHT22;44361;51.476;5.700;2024-01-27T12:01:37;6.60;99.90
58582;DHT22;44361;51.476;5.700;2024-01-27T12:04:03;6.70;99.90
58582;DHT22;44361;51.476;5.700;2024-01-27T12:06:30;6.70;99.90
58582;DHT22;44361;51.476;5.700;2024-01-27T12:08:56;6.80;99.90
58582;DHT22;44361;51.476;5.700;2024-01-27T12:11:24;6.90;99.90
58582;DHT22;44361;51.476;5.700;2024-01-27T12:13:49;6.80;99.90
58582;DHT22;44361;51.476;5.700;2024-01-27T12:16:15;6.90;99.90
58582;DHT22;44361;51.476;5.700;2024-01-27T12:18:41;7.00;99.90
58582;DHT22;44361;51.476;5.700;2024-01-27T12:21:07;7.10;99.90
58582;DHT22;44361;51.476;5.700;2024-01-27T12:23:32;7.20;99.90
58582;DHT22;44361;51.476;5.700;2024-01-27T12:25:58;7.20;99.90
58582;DHT22;44361;51.476;5.700;2024-01-27T12:28:23;7.20;99.90
58582;DHT22;44361;51.476;5.700;2024-01-27T12:30:51;7.20;99.90
58582;DHT22;44361;51.476;5.700;2024-01-27T12:33:17;7.20;99.90
58582;DHT22;44361;51.476;5.700;2024-01-27T12:35:47;7.20;99.90
58582;DHT22;44361;51.476;5.700;2024-01-27T12:38:13;7.20;99.90
58582;DHT22;44361;51.476;5.700;2024-01-27T12:40:38;7.30;99.90
58582;DHT22;44361;51.476;5.700;2024-01-27T12:43:04;7.30;99.70
58582;DHT22;44361;51.476;5.700;2024-01-27T12:45:29;7.40;99.00
58582;DHT22;44361;51.476;5.700;2024-01-27T12:47:55;7.50;98.80
58582;DHT22;44361;51.476;5.700;2024-01-27T12:50:21;7.50;98.50
58582;DHT22;44361;51.476;5.700;2024-01-27T12:52:46;7.50;98.30
58582;DHT22;44361;51.476;5.700;2024-01-27T12:55:12;7.50;98.20
58582;DHT22;44361;51.476;5.700;2024-01-27T12:57:38;7.50;97.80
58582;DHT22;44361;51.476;5.700;2024-01-27T13:00:06;7.50;97.80
58582;DHT22;44361;51.476;5.700;2024-01-27T13:02:39;7.40;97.40
58582;DHT22;44361;51.476;5.700;2024-01-27T13:05:04;7.40;97.30
58582;DHT22;44361;51.476;5.700;2024-01-27T13:07:30;7.40;97.30
58582;DHT22;44361;51.476;5.700;2024-01-27T13:09:56;7.40;96.60
58582;DHT22;44361;51.476;5.700;2024-01-27T13:12:22;7.40;96.70
58582;DHT22;44361;51.476;5.700;2024-01-27T13:14:47;7.30;96.20
58582;DHT22;44361;51.476;5.700;2024-01-27T13:17:14;7.30;95.90
58582;DHT22;44361;51.476;5.700;2024-01-27T13:19:40;7.30;95.70
58582;DHT22;44361;51.476;5.700;2024-01-27T13:22:06;7.20;95.80
58582;DHT22;44361;51.476;5.700;2024-01-27T13:24:33;7.20;96.00
58582;DHT22;44361;51.476;5.700;2024-01-27T13:26:58;7.20;96.20
58582;DHT22;44361;51.476;5.700;2024-01-27T13:29:24;7.20;96.00
58582;DHT22;44361;51.476;5.700;2024-01-27T13:31:50;7.30;96.10
58582;DHT22;44361;51.476;5.700;2024-01-27T13:34:15;7.40;96.00
58582;DHT22;44361;51.476;5.700;2024-01-27T13:36:41;7.40;95.70
58582;DHT22;44361;51.476;5.700;2024-01-27T13:39:07;7.50;96.10
58582;DHT22;44361;51.476;5.700;2024-01-27T13:41:32;7.50;96.60
58582;DHT22;44361;51.476;5.700;2024-01-27T13:43:58;7.50;95.80
58582;DHT22;44361;51.476;5.700;2024-01-27T13:46:23;7.50;95.80
58582;DHT22;44361;51.476;5.700;2024-01-27T13:48:49;7.50;96.40
58582;DHT22;44361;51.476;5.700;2024-01-27T13:51:15;7.60;96.60
58582;DHT22;44361;51.476;5.700;2024-01-27T13:53:40;7.60;96.60
58582;DHT22;44361;51.476;5.700;2024-01-27T13:56:06;7.60;96.40
58582;DHT22;44361;51.476;5.700;2024-01-27T13:58:32;7.70;96.40
58582;DHT22;44361;51.476;5.700;2024-01-27T14:00:58;7.70;96.20
58582;DHT22;44361;51.476;5.700;2024-01-27T14:03:23;7.70;96.40
58582;DHT22;44361;51.476;5.700;2024-01-27T14:05:49;7.70;96.70
58582;DHT22;44361;51.476;5.700;2024-01-27T14:08:15;7.70;96.10
58582;DHT22;44361;51.476;5.700;2024-01-27T14:10:42;7.70;96.00
58582;DHT22;44361;51.476;5.700;2024-01-27T14:13:09;7.70;96.10
58582;DHT22;44361;51.476;5.700;2024-01-27T14:15:36;7.60;96.30
58582;DHT22;44361;51.476;5.700;2024-01-27T14:18:02;7.60;96.20
58582;DHT22;44361;51.476;5.700;2024-01-27T14:20:27;7.60;96.30
58582;DHT22;44361;51.476;5.700;2024-01-27T14:22:55;7.60;96.30
58582;DHT22;44361;51.476;5.700;2024-01-27T14:25:20;7.50;96.50
58582;DHT22;44361;51.476;5.700;2024-01-27T14:27:46;7.40;96.30
58582;DHT22;44361;51.476;5.700;2024-01-27T14:30:12;7.40;96.30
58582;DHT22;44361;51.476;5.700;2024-01-27T14:32:38;7.30;96.50
58582;DHT22;44361;51.476;5.700;2024-01-27T14:35:04;7.30;96.40
58582;DHT22;44361;51.476;5.700;2024-01-27T14:37:32;7.20;96.50
58582;DHT22;44361;51.476;5.700;2024-01-27T14:39:57;7.10;96.50
58582;DHT22;44361;51.476;5.700;2024-01-27T14:42:23;7.10;96.40
58582;DHT22;44361;51.476;5.700;2024-01-27T14:44:50;7.00;96.40
58582;DHT22;44361;51.476;5.700;2024-01-27T14:47:18;6.90;96.50
58582;DHT22;44361;51.476;5.700;2024-01-27T14:49:43;6.90;96.70
58582;DHT22;44361;51.476;5.700;2024-01-27T14:52:10;6.80;96.90
58582;DHT22;44361;51.476;5.700;2024-01-27T14:54:37;6.80;96.90
58582;DHT22;44361;51.476;5.700;2024-01-27T14:57:04;6.70;96.80
58582;DHT22;44361;51.476;5.700;2024-01-27T14:59:30;6.70;97.00
58582;DHT22;44361;51.476;5.700;2024-01-27T15:01:56;6.70;97.50
58582;DHT22;44361;51.476;5.700;2024-01-27T15:04:23;6.60;97.40
58582;DHT22;44361;51.476;5.700;2024-01-27T15:06:53;6.60;97.50
58582;DHT22;44361;51.476;5.700;2024-01-27T15:09:19;6.50;97.70
58582;DHT22;44361;51.476;5.700;2024-01-27T15:11:45;6.60;98.10
58582;DHT22;44361;51.476;5.700;2024-01-27T15:14:10;6.60;98.30
58582;DHT22;44361;51.476;5.700;2024-01-27T15:16:36;6.50;98.20
58582;DHT22;44361;51.476;5.700;2024-01-27T15:19:01;6.40;98.40
58582;DHT22;44361;51.476;5.700;2024-01-27T15:21:28;6.50;98.80
58582;DHT22;44361;51.476;5.700;2024-01-27T15:23:55;6.40;98.70
58582;DHT22;44361;51.476;5.700;2024-01-27T15:26:21;6.30;98.80
58582;DHT22;44361;51.476;5.700;2024-01-27T15:28:47;6.30;99.00
58582;DHT22;44361;51.476;5.700;2024-01-27T15:31:12;6.20;99.10
58582;DHT22;44361;51.476;5.700;2024-01-27T15:33:38;6.10;99.10
58582;DHT22;44361;51.476;5.700;2024-01-27T15:36:05;6.10;99.20
58582;DHT22;44361;51.476;5.700;2024-01-27T15:38:31;6.10;99.40
58582;DHT22;44361;51.476;5.700;2024-01-27T15:40:56;6.00;99.40